createdAt,value
2023-05-06T00:01:25.348Z,10.22
2023-05-06T00:03:52.363Z,10.18
2023-05-06T00:06:19.207Z,10.14
2023-05-06T00:08:46.661Z,10.09
2023-05-06T00:11:13.935Z,10.05
2023-05-06T00:13:41.629Z,10.04
2023-05-06T00:16:08.437Z,10.01
2023-05-06T00:18:35.241Z,9.99
2023-05-06T00:21:01.641Z,10.00
2023-05-06T00:23:28.225Z,10.00
2023-05-06T00:25:54.908Z,9.99
2023-05-06T00:28:22.022Z,10.01
2023-05-06T00:30:48.465Z,10.04
2023-05-06T00:33:14.982Z,10.03
2023-05-06T00:35:41.383Z,10.01
2023-05-06T00:38:14.299Z,10.04
2023-05-06T00:40:41.026Z,10.07
2023-05-06T00:43:07.535Z,10.05
2023-05-06T00:45:34.103Z,9.98
2023-05-06T00:48:01.167Z,9.96
2023-05-06T00:50:29.625Z,9.95
2023-05-06T00:52:58.992Z,9.85
2023-05-06T00:55:26.435Z,9.83
2023-05-06T00:57:53.107Z,9.79
2023-05-06T01:00:20.484Z,9.82
2023-05-06T01:02:48.228Z,9.81
2023-05-06T01:05:22.242Z,9.83
2023-05-06T01:08:12.925Z,9.85
2023-05-06T01:10:51.687Z,9.84
2023-05-06T01:13:47.092Z,9.81
2023-05-06T01:16:15.818Z,9.81
2023-05-06T01:18:44.546Z,9.84
2023-05-06T01:21:12.632Z,9.86
2023-05-06T01:23:57.645Z,9.80
2023-05-06T01:26:24.898Z,9.72
2023-05-06T01:28:51.498Z,9.72
2023-05-06T01:31:30.065Z,9.73
2023-05-06T01:34:14.130Z,9.73
2023-05-06T01:36:58.484Z,9.70
2023-05-06T01:39:26.336Z,9.68
2023-05-06T01:41:57.315Z,9.72
2023-05-06T01:44:24.870Z,9.67
2023-05-06T01:46:51.793Z,9.61
2023-05-06T01:49:19.893Z,9.57
2023-05-06T01:51:50.846Z,9.55
2023-05-06T01:54:17.730Z,9.52
2023-05-06T01:56:44.195Z,9.56
2023-05-06T01:59:10.832Z,9.54
2023-05-06T02:01:37.297Z,9.48
2023-05-06T02:04:04.181Z,9.44
2023-05-06T02:06:30.777Z,9.41
2023-05-06T02:08:57.182Z,9.39
2023-05-06T02:11:23.621Z,9.36
2023-05-06T02:13:50.356Z,9.32
2023-05-06T02:16:16.969Z,9.25
2023-05-06T02:18:43.606Z,9.21
2023-05-06T02:21:10.435Z,9.20
2023-05-06T02:23:36.820Z,9.22
2023-05-06T02:26:04.331Z,9.25
2023-05-06T02:28:30.827Z,9.20
2023-05-06T02:30:57.717Z,9.15
2023-05-06T02:33:24.499Z,9.14
2023-05-06T02:35:51.329Z,9.08
2023-05-06T02:38:19.129Z,9.02
2023-05-06T02:40:45.701Z,8.96
2023-05-06T02:43:12.200Z,8.91
2023-05-06T02:45:39.288Z,8.86
2023-05-06T02:48:06.321Z,8.81
2023-05-06T02:50:34.017Z,8.81
2023-05-06T02:53:00.553Z,8.86
2023-05-06T02:55:27.183Z,8.90
2023-05-06T02:57:53.669Z,8.90
2023-05-06T03:00:20.335Z,8.89
2023-05-06T03:02:47.182Z,8.88
2023-05-06T03:05:13.746Z,8.87
2023-05-06T03:07:40.170Z,8.89
2023-05-06T03:10:07.593Z,8.86
2023-05-06T03:12:34.207Z,8.83
2023-05-06T03:15:00.710Z,8.84
2023-05-06T03:17:27.200Z,8.85
2023-05-06T03:19:53.668Z,8.85
2023-05-06T03:22:20.482Z,8.80
2023-05-06T03:24:46.859Z,8.74
2023-05-06T03:27:13.312Z,8.70
2023-05-06T03:29:39.742Z,8.69
2023-05-06T03:32:06.631Z,8.68
2023-05-06T03:34:33.080Z,8.69
2023-05-06T03:37:00.449Z,8.72
2023-05-06T03:39:26.861Z,8.71
2023-05-06T03:41:53.394Z,8.68
2023-05-06T03:44:19.820Z,8.62
2023-05-06T03:46:46.242Z,8.62
2023-05-06T03:49:12.944Z,8.61
2023-05-06T03:51:39.534Z,8.61
2023-05-06T03:54:06.174Z,8.54
2023-05-06T03:56:32.677Z,8.48
2023-05-06T03:58:59.122Z,8.38
2023-05-06T04:01:25.646Z,8.37
2023-05-06T04:03:53.657Z,8.40
2023-05-06T04:06:20.104Z,8.40
2023-05-06T04:08:46.548Z,8.38
2023-05-06T04:11:13.054Z,8.40
2023-05-06T04:13:39.554Z,8.45
2023-05-06T04:16:06.367Z,8.53
2023-05-06T04:18:34.315Z,8.62
2023-05-06T04:21:00.899Z,8.63
2023-05-06T04:23:27.408Z,8.62
2023-05-06T04:25:53.995Z,8.66
2023-05-06T04:28:20.702Z,8.75
2023-05-06T04:30:47.194Z,8.82
2023-05-06T04:33:13.956Z,8.89
2023-05-06T04:35:41.012Z,8.96
2023-05-06T04:38:07.586Z,9.04
2023-05-06T04:40:36.577Z,9.03
2023-05-06T04:43:03.194Z,9.11
2023-05-06T04:45:29.946Z,9.19
2023-05-06T04:47:56.620Z,9.32
2023-05-06T04:50:23.129Z,9.32
2023-05-06T04:52:49.707Z,9.23
2023-05-06T04:55:16.284Z,9.20
2023-05-06T04:57:42.831Z,9.23
2023-05-06T05:00:10.671Z,9.37
2023-05-06T05:02:37.607Z,9.55
2023-05-06T05:05:04.441Z,9.69
2023-05-06T05:07:30.950Z,9.78
2023-05-06T05:09:57.579Z,9.84
2023-05-06T05:12:24.015Z,9.94
2023-05-06T05:14:50.450Z,10.21
2023-05-06T05:17:17.038Z,10.44
2023-05-06T05:19:43.549Z,10.70
2023-05-06T05:22:10.040Z,10.87
2023-05-06T05:24:36.469Z,11.18
2023-05-06T05:27:03.444Z,11.68
2023-05-06T05:29:29.936Z,12.73
2023-05-06T05:31:56.628Z,13.56
2023-05-06T05:34:23.022Z,14.44
2023-05-06T05:36:49.561Z,15.44
2023-05-06T05:39:16.078Z,16.54
2023-05-06T05:41:42.610Z,16.47
2023-05-06T05:44:09.095Z,15.46
2023-05-06T05:46:35.581Z,14.92
2023-05-06T05:49:02.087Z,15.45
2023-05-06T05:51:28.566Z,15.36
2023-05-06T05:53:54.984Z,15.09
2023-05-06T05:56:21.503Z,14.81
2023-05-06T05:58:48.073Z,14.53
2023-05-06T06:01:14.643Z,14.20
2023-05-06T06:03:41.895Z,14.04
2023-05-06T06:06:09.217Z,13.83
2023-05-06T06:08:36.048Z,13.71
2023-05-06T06:11:04.480Z,13.62
2023-05-06T06:13:31.579Z,13.57
2023-05-06T06:15:58.477Z,13.55
2023-05-06T06:18:24.968Z,13.52
2023-05-06T06:20:53.286Z,13.46
2023-05-06T06:23:20.946Z,13.42
2023-05-06T06:25:47.431Z,13.51
2023-05-06T06:28:13.950Z,13.44
2023-05-06T06:30:41.215Z,13.27
2023-05-06T06:33:07.765Z,13.28
2023-05-06T06:35:35.643Z,13.33
2023-05-06T06:38:02.849Z,13.40
2023-05-06T06:40:29.310Z,13.44
2023-05-06T06:42:55.814Z,13.50
2023-05-06T06:45:23.438Z,13.56
2023-05-06T06:47:50.055Z,13.59
2023-05-06T06:50:16.723Z,13.65
2023-05-06T06:52:43.126Z,13.65
2023-05-06T06:55:10.210Z,13.68
2023-05-06T06:57:37.911Z,13.79
2023-05-06T07:00:05.129Z,14.03
2023-05-06T07:02:31.647Z,14.37
2023-05-06T07:04:58.091Z,14.56
2023-05-06T07:07:24.505Z,14.56
2023-05-06T07:09:50.939Z,14.60
2023-05-06T07:12:17.400Z,14.75
2023-05-06T07:14:43.783Z,14.91
2023-05-06T07:17:10.264Z,15.09
2023-05-06T07:19:36.894Z,15.30
2023-05-06T07:22:03.432Z,16.14
2023-05-06T07:24:29.905Z,16.76
2023-05-06T07:26:56.639Z,16.80
2023-05-06T07:29:23.708Z,16.67
2023-05-06T07:31:50.080Z,16.72
2023-05-06T07:34:16.530Z,16.75
2023-05-06T07:36:54.821Z,16.66
2023-05-06T07:39:21.290Z,16.82
2023-05-06T07:41:48.025Z,17.10
2023-05-06T07:44:14.418Z,17.28
2023-05-06T07:46:41.790Z,17.86
2023-05-06T07:49:08.323Z,18.46
2023-05-06T07:51:34.842Z,18.78
2023-05-06T07:54:01.310Z,18.77
2023-05-06T07:56:28.001Z,19.29
2023-05-06T07:58:54.590Z,18.86
2023-05-06T08:01:21.154Z,18.40
2023-05-06T08:03:47.670Z,18.60
2023-05-06T08:06:14.464Z,18.09
2023-05-06T08:08:40.894Z,17.95
2023-05-06T08:11:07.369Z,17.85
2023-05-06T08:13:33.890Z,17.78
2023-05-06T08:16:02.318Z,17.82
2023-05-06T08:18:29.362Z,17.93
2023-05-06T08:20:55.909Z,18.13
2023-05-06T08:23:22.470Z,18.04
2023-05-06T08:25:48.862Z,17.76
2023-05-06T08:28:15.271Z,17.81
2023-05-06T08:30:41.919Z,18.14
2023-05-06T08:33:08.410Z,18.47
2023-05-06T08:35:34.836Z,18.44
2023-05-06T08:38:01.854Z,18.58
2023-05-06T08:40:32.538Z,18.79
2023-05-06T08:42:59.732Z,18.86
2023-05-06T08:45:29.269Z,19.16
2023-05-06T08:47:56.180Z,19.27
2023-05-06T08:50:23.396Z,19.48
2023-05-06T08:52:50.858Z,19.72
2023-05-06T08:55:19.327Z,19.84
2023-05-06T08:57:46.311Z,19.81
2023-05-06T09:00:13.459Z,20.16
2023-05-06T09:02:42.693Z,20.46
2023-05-06T09:05:10.216Z,20.67
2023-05-06T09:07:37.026Z,20.42
2023-05-06T09:10:21.874Z,20.16
2023-05-06T09:12:48.435Z,20.44
2023-05-06T09:15:15.163Z,20.08
2023-05-06T09:17:41.955Z,20.20
2023-05-06T09:20:11.948Z,20.53
2023-05-06T09:22:40.510Z,20.71
2023-05-06T09:25:07.848Z,20.91
2023-05-06T09:27:36.586Z,21.00
2023-05-06T09:30:14.886Z,21.04
2023-05-06T09:32:41.916Z,20.68
2023-05-06T09:35:10.638Z,20.48
2023-05-06T09:37:37.320Z,20.00
2023-05-06T09:40:04.097Z,20.12
2023-05-06T09:42:30.880Z,20.07
2023-05-06T09:45:07.575Z,20.32
2023-05-06T09:47:35.644Z,20.15
2023-05-06T09:50:03.354Z,20.22
2023-05-06T09:52:31.150Z,20.11
2023-05-06T09:54:58.147Z,20.00
2023-05-06T09:57:25.719Z,19.80
2023-05-06T09:59:53.964Z,19.55
2023-05-06T10:02:23.426Z,19.87
2023-05-06T10:04:51.199Z,20.27
2023-05-06T10:07:22.754Z,20.50
2023-05-06T10:09:51.085Z,20.61
2023-05-06T10:12:19.012Z,20.95
2023-05-06T10:14:45.627Z,20.86
2023-05-06T10:17:13.329Z,20.49
2023-05-06T10:19:43.773Z,20.87
2023-05-06T10:22:30.941Z,20.76
2023-05-06T10:25:33.879Z,20.93
2023-05-06T10:28:01.422Z,20.63
2023-05-06T10:30:30.148Z,20.45
2023-05-06T10:32:59.549Z,20.44
2023-05-06T10:35:41.425Z,20.87
2023-05-06T10:38:29.632Z,20.63
2023-05-06T10:40:57.302Z,20.64
2023-05-06T10:43:32.001Z,20.86
2023-05-06T10:46:02.921Z,21.16
2023-05-06T10:48:30.866Z,21.47
2023-05-06T10:51:15.935Z,21.77
2023-05-06T10:54:08.514Z,21.89
2023-05-06T10:56:50.217Z,22.08
2023-05-06T10:59:24.954Z,21.67
2023-05-06T11:01:57.390Z,21.43
2023-05-06T11:04:24.015Z,21.48
2023-05-06T11:06:52.961Z,21.15
2023-05-06T11:09:24.610Z,21.24
2023-05-06T11:12:05.914Z,21.22
2023-05-06T11:14:35.349Z,21.47
2023-05-06T11:17:04.935Z,21.64
2023-05-06T11:19:33.102Z,21.69
2023-05-06T11:22:01.766Z,21.81
2023-05-06T11:24:30.193Z,21.77
2023-05-06T11:26:58.830Z,21.98
2023-05-06T11:29:25.937Z,21.82
2023-05-06T11:31:55.856Z,21.77
2023-05-06T11:34:30.489Z,21.96
2023-05-06T11:37:02.487Z,21.81
2023-05-06T11:39:32.327Z,21.69
2023-05-06T11:42:06.974Z,21.85
2023-05-06T11:44:35.115Z,21.62
2023-05-06T11:47:05.594Z,22.06
2023-05-06T11:49:40.759Z,22.34
2023-05-06T11:52:12.003Z,22.83
2023-05-06T11:54:40.603Z,22.54
2023-05-06T11:57:07.436Z,22.35
2023-05-06T11:59:37.489Z,22.05
2023-05-06T12:02:06.145Z,22.25
2023-05-06T12:04:44.200Z,22.43
2023-05-06T12:07:13.158Z,21.97
2023-05-06T12:09:43.572Z,22.00
2023-05-06T12:12:11.236Z,22.46
2023-05-06T12:14:38.399Z,22.50
2023-05-06T12:17:05.413Z,22.49
2023-05-06T12:19:32.707Z,22.29
2023-05-06T12:22:19.479Z,22.56
2023-05-06T12:24:47.561Z,22.56
2023-05-06T12:27:14.287Z,22.46
2023-05-06T12:29:40.774Z,22.65
2023-05-06T12:32:11.676Z,22.22
2023-05-06T12:34:40.013Z,22.47
2023-05-06T12:37:09.858Z,22.48
2023-05-06T12:39:40.409Z,22.17
2023-05-06T12:42:06.980Z,21.96
2023-05-06T12:44:40.031Z,21.90
2023-05-06T12:47:08.936Z,22.21
2023-05-06T12:49:53.679Z,22.35
2023-05-06T12:52:25.181Z,22.30
2023-05-06T12:54:55.032Z,22.30
2023-05-06T12:57:22.161Z,22.66
2023-05-06T12:59:49.160Z,22.68
2023-05-06T13:02:16.115Z,22.40
2023-05-06T13:04:42.807Z,22.09
2023-05-06T13:07:09.259Z,22.67
2023-05-06T13:09:35.769Z,22.75
2023-05-06T13:12:04.449Z,22.75
2023-05-06T13:14:30.929Z,22.66
2023-05-06T13:17:00.788Z,22.70
2023-05-06T13:19:33.055Z,22.88
2023-05-06T13:22:00.621Z,22.90
2023-05-06T13:24:27.383Z,23.04
2023-05-06T13:26:53.860Z,23.06
2023-05-06T13:29:20.438Z,22.74
2023-05-06T13:31:46.938Z,22.27
2023-05-06T13:34:13.885Z,22.00
2023-05-06T13:36:40.338Z,22.12
2023-05-06T13:39:06.865Z,22.28
2023-05-06T13:41:33.238Z,22.34
2023-05-06T13:43:59.847Z,22.06
2023-05-06T13:46:29.245Z,21.92
2023-05-06T13:48:55.706Z,22.07
2023-05-06T13:51:22.160Z,22.15
2023-05-06T13:53:48.540Z,22.08
2023-05-06T13:56:14.955Z,22.00
2023-05-06T13:58:43.683Z,21.99
2023-05-06T14:01:10.279Z,21.89
2023-05-06T14:03:37.062Z,21.93
2023-05-06T14:06:03.735Z,22.19
2023-05-06T14:08:30.244Z,22.48
2023-05-06T14:10:56.599Z,22.36
2023-05-06T14:13:23.319Z,22.69
2023-05-06T14:15:49.851Z,23.00
2023-05-06T14:18:16.358Z,23.46
2023-05-06T14:20:44.116Z,23.90
2023-05-06T14:23:10.580Z,24.11
2023-05-06T14:25:37.096Z,23.71
2023-05-06T14:28:03.575Z,23.34
2023-05-06T14:30:31.251Z,23.13
2023-05-06T14:32:58.686Z,23.05
2023-05-06T14:35:25.337Z,23.27
2023-05-06T14:37:51.985Z,23.71
2023-05-06T14:40:18.418Z,23.82
2023-05-06T14:42:45.831Z,24.01
2023-05-06T14:45:13.454Z,24.15
2023-05-06T14:47:40.717Z,24.24
2023-05-06T14:50:11.944Z,24.34
2023-05-06T14:52:40.025Z,24.07
2023-05-06T14:55:08.817Z,23.97
2023-05-06T14:57:35.746Z,24.21
2023-05-06T15:00:04.909Z,24.44
2023-05-06T15:02:31.377Z,24.15
2023-05-06T15:04:58.185Z,24.08
2023-05-06T15:07:24.562Z,23.97
2023-05-06T15:09:53.369Z,23.84
2023-05-06T15:12:21.153Z,23.76
2023-05-06T15:14:47.680Z,23.59
2023-05-06T15:17:14.074Z,23.40
2023-05-06T15:19:40.714Z,23.28
2023-05-06T15:22:07.339Z,23.25
2023-05-06T15:24:33.757Z,23.24
2023-05-06T15:27:00.672Z,23.24
2023-05-06T15:29:27.324Z,23.21
2023-05-06T15:31:54.256Z,23.23
2023-05-06T15:34:21.169Z,23.26
2023-05-06T15:36:53.539Z,23.14
2023-05-06T15:39:20.044Z,23.21
2023-05-06T15:41:47.577Z,23.22
2023-05-06T15:44:16.388Z,23.21
2023-05-06T15:46:43.014Z,23.06
2023-05-06T15:49:39.634Z,23.04
2023-05-06T15:51:59.123Z,23.04
2023-05-06T15:54:27.261Z,22.98
2023-05-06T15:56:53.708Z,23.08
2023-05-06T15:59:20.152Z,23.03
2023-05-06T16:04:16.380Z,22.93
2023-05-06T16:06:42.982Z,22.86
2023-05-06T16:09:10.334Z,22.89
2023-05-06T16:11:36.884Z,22.85
2023-05-06T16:14:03.805Z,22.83
2023-05-06T16:16:30.513Z,22.81
2023-05-06T16:18:57.031Z,22.78
2023-05-06T16:21:23.493Z,22.74
2023-05-06T16:23:49.855Z,22.67
2023-05-06T16:26:16.854Z,22.66
2023-05-06T16:28:43.305Z,22.66
2023-05-06T16:31:09.793Z,22.59
2023-05-06T16:33:36.677Z,22.51
2023-05-06T16:36:03.974Z,22.39
2023-05-06T16:38:30.648Z,22.37
2023-05-06T16:40:57.037Z,22.33
2023-05-06T16:43:23.757Z,22.31
2023-05-06T16:45:50.352Z,22.24
2023-05-06T16:48:17.240Z,22.20
2023-05-06T16:50:43.766Z,22.08
2023-05-06T16:53:10.627Z,21.89
2023-05-06T16:55:37.142Z,21.87
2023-05-06T16:58:04.088Z,21.81
2023-05-06T17:00:31.747Z,21.73
2023-05-06T17:02:58.504Z,21.64
2023-05-06T17:05:25.155Z,21.54
2023-05-06T17:07:51.880Z,21.48
2023-05-06T17:10:19.019Z,21.39
2023-05-06T17:12:47.014Z,21.35
2023-05-06T17:15:13.459Z,21.27
2023-05-06T17:17:40.030Z,21.23
2023-05-06T17:20:07.376Z,21.19
2023-05-06T17:22:33.881Z,21.11
2023-05-06T17:25:00.444Z,21.00
2023-05-06T17:27:27.115Z,20.92
2023-05-06T17:29:53.533Z,20.87
2023-05-06T17:32:20.012Z,20.82
2023-05-06T17:34:46.573Z,20.74
2023-05-06T17:37:12.975Z,20.63
2023-05-06T17:39:39.811Z,20.55
2023-05-06T17:42:06.361Z,20.43
2023-05-06T17:44:35.169Z,20.39
2023-05-06T17:47:01.583Z,20.33
2023-05-06T17:49:28.047Z,20.26
2023-05-06T17:51:56.101Z,20.18
2023-05-06T17:54:23.002Z,20.02
2023-05-06T17:56:52.679Z,19.64
2023-05-06T17:59:19.843Z,19.35
2023-05-06T18:01:46.547Z,19.09
2023-05-06T18:04:13.592Z,18.79
2023-05-06T18:06:41.664Z,18.54
2023-05-06T18:09:08.520Z,18.36
2023-05-06T18:11:35.181Z,18.23
2023-05-06T18:14:01.634Z,18.05
2023-05-06T18:16:28.175Z,17.83
2023-05-06T18:18:54.630Z,17.63
2023-05-06T18:21:21.187Z,17.55
2023-05-06T18:23:48.520Z,17.42
2023-05-06T18:26:27.999Z,17.32
2023-05-06T18:29:06.771Z,17.23
2023-05-06T18:31:33.516Z,17.10
2023-05-06T18:33:59.936Z,17.00
2023-05-06T18:36:26.921Z,16.88
2023-05-06T18:38:53.443Z,16.80
2023-05-06T18:41:19.841Z,16.75
2023-05-06T18:43:46.253Z,16.71
2023-05-06T18:46:12.678Z,16.67
2023-05-06T18:48:39.146Z,16.61
2023-05-06T18:51:23.960Z,16.56
2023-05-06T18:53:50.428Z,16.51
2023-05-06T18:56:16.936Z,16.52
2023-05-06T18:58:43.582Z,16.49
2023-05-06T19:01:10.829Z,16.47
2023-05-06T19:03:37.989Z,16.43
2023-05-06T19:06:07.575Z,16.43
2023-05-06T19:08:34.003Z,16.42
2023-05-06T19:11:01.204Z,16.39
2023-05-06T19:13:28.201Z,16.36
2023-05-06T19:15:55.030Z,16.29
2023-05-06T19:18:21.524Z,16.29
2023-05-06T19:20:47.965Z,16.25
2023-05-06T19:23:14.384Z,16.23
2023-05-06T19:25:40.794Z,16.22
2023-05-06T19:28:07.630Z,16.21
2023-05-06T19:30:35.351Z,16.23
2023-05-06T19:33:02.515Z,16.21
2023-05-06T19:35:29.101Z,16.16
2023-05-06T19:37:56.123Z,16.16
2023-05-06T19:40:22.695Z,16.11
2023-05-06T19:42:49.114Z,16.06
2023-05-06T19:45:16.709Z,16.01
2023-05-06T19:47:45.314Z,15.96
2023-05-06T19:50:12.046Z,15.83
2023-05-06T19:52:38.666Z,15.81
2023-05-06T19:55:05.570Z,15.78
2023-05-06T19:57:33.627Z,15.62
2023-05-06T20:00:00.290Z,15.56
2023-05-06T20:02:26.861Z,15.53
2023-05-06T20:04:53.314Z,15.60
2023-05-06T20:07:21.102Z,15.57
2023-05-06T20:09:55.009Z,15.58
2023-05-06T20:12:26.396Z,15.57
2023-05-06T20:14:53.684Z,15.46
2023-05-06T20:17:20.617Z,15.40
2023-05-06T20:19:47.909Z,15.45
2023-05-06T20:22:14.821Z,15.46
2023-05-06T20:24:42.476Z,15.46
2023-05-06T20:27:09.505Z,15.46
2023-05-06T20:29:36.235Z,15.42
2023-05-06T20:32:02.925Z,15.36
2023-05-06T20:34:29.708Z,15.36
2023-05-06T20:36:56.773Z,15.35
2023-05-06T20:39:23.896Z,15.36
2023-05-06T20:41:50.501Z,15.35
2023-05-06T20:44:17.167Z,15.22
2023-05-06T20:46:44.141Z,15.13
2023-05-06T20:49:10.760Z,15.15
2023-05-06T20:51:37.227Z,15.11
2023-05-06T20:54:03.960Z,15.11
2023-05-06T20:56:30.550Z,15.01
2023-05-06T20:58:56.996Z,14.99
2023-05-06T21:01:24.142Z,15.00
2023-05-06T21:03:50.945Z,15.03
2023-05-06T21:06:18.581Z,15.05
2023-05-06T21:08:46.375Z,15.07
2023-05-06T21:11:13.255Z,15.04
2023-05-06T21:13:40.276Z,15.04
2023-05-06T21:16:06.644Z,14.99
2023-05-06T21:18:33.155Z,14.93
2023-05-06T21:20:59.775Z,14.94
2023-05-06T21:23:26.609Z,14.96
2023-05-06T21:25:53.034Z,14.94
2023-05-06T21:28:19.461Z,14.91
2023-05-06T21:30:46.050Z,14.87
2023-05-06T21:33:12.608Z,14.83
2023-05-06T21:35:39.108Z,14.82
2023-05-06T21:38:05.518Z,14.72
2023-05-06T21:40:32.230Z,14.66
2023-05-06T21:42:58.712Z,14.62
2023-05-06T21:45:25.359Z,14.60
2023-05-06T21:47:51.838Z,14.53
2023-05-06T21:50:18.255Z,14.49
2023-05-06T21:52:44.672Z,14.48
2023-05-06T21:55:11.515Z,14.45
2023-05-06T21:57:38.750Z,14.47
2023-05-06T22:00:11.974Z,14.48
2023-05-06T22:02:41.834Z,14.45
2023-05-06T22:05:09.031Z,14.41
2023-05-06T22:07:35.969Z,14.39
2023-05-06T22:10:03.096Z,14.35
2023-05-06T22:12:30.087Z,14.30
2023-05-06T22:14:56.552Z,14.29
2023-05-06T22:17:23.202Z,14.27
2023-05-06T22:19:50.480Z,14.25
2023-05-06T22:22:17.199Z,14.27
2023-05-06T22:24:43.884Z,14.27
2023-05-06T22:27:10.687Z,14.25
2023-05-06T22:29:37.130Z,14.24
2023-05-06T22:32:03.929Z,14.27
2023-05-06T22:34:30.420Z,14.27
2023-05-06T22:36:59.167Z,14.27
2023-05-06T22:39:27.186Z,14.26
2023-05-06T22:41:53.717Z,14.22
2023-05-06T22:44:21.004Z,14.20
2023-05-06T22:46:47.425Z,14.19
2023-05-06T22:49:14.444Z,14.19
2023-05-06T22:51:41.238Z,14.16
2023-05-06T22:54:07.620Z,14.14
2023-05-06T22:56:34.037Z,14.13
2023-05-06T22:59:00.481Z,14.14
2023-05-06T23:01:32.267Z,14.14
2023-05-06T23:03:59.629Z,14.13
2023-05-06T23:06:27.680Z,14.12
2023-05-06T23:08:54.199Z,14.06
2023-05-06T23:11:20.779Z,14.04
2023-05-06T23:13:47.325Z,13.99
2023-05-06T23:16:14.617Z,13.99
2023-05-06T23:18:41.374Z,13.94
2023-05-06T23:21:08.011Z,13.92
2023-05-06T23:23:34.629Z,13.89
2023-05-06T23:26:01.026Z,13.88
2023-05-06T23:28:27.842Z,13.91
2023-05-06T23:30:54.320Z,13.91
2023-05-06T23:33:21.182Z,13.90
2023-05-06T23:35:47.610Z,13.88
2023-05-06T23:38:15.768Z,13.87
2023-05-06T23:40:42.388Z,13.82
2023-05-06T23:43:11.220Z,13.78
2023-05-06T23:45:37.974Z,13.76
2023-05-06T23:48:04.988Z,13.75
2023-05-06T23:50:32.826Z,13.74
2023-05-06T23:52:59.356Z,13.75
2023-05-06T23:55:26.401Z,13.79
2023-05-06T23:57:53.040Z,13.85
